Valle Toledo, Valles Caldera, New Mexico Weather observations

Data are for 10 minute period ending at time listed.
 Day   Time   Solar   Ave.   Ave.  Ave.  Vector  Max.   Baro.   Total    
  of    of     Rad.   Air    Rel.  Wind   Wind   Wind  Press.  Precip.   
Year   Day            Temp.  Hum.  Speed  Dir.   Gust                    
2014   (MST)  Kw/m2    F      %     mph   deg.    mph    mb.     in.     
-------------------------------------------------------------------------
 265    0:00   0.00   52.7    80    7.6   144    14.9   739.6    0.00 
 265    0:10   0.00   52.6    80    6.9   147    11.9   739.6    0.00 
 265    0:20   0.00   52.8    79    6.6   144    11.9   739.6    0.00 
 265    0:30   0.00   52.9    79    6.5   141    13.1   739.5    0.00 
 265    0:40   0.00   52.8    78    9.2   137    16.1   739.5    0.00 
 265    0:50   0.00   52.8    78    8.0   147    13.7   739.5    0.00 
 265    1:00   0.00   52.5    79    7.1   146    11.9   739.4    0.00 
 265    1:10   0.00   52.3    79    6.1   142    10.8   739.4    0.00 
 265    1:20   0.00   52.3    78    7.5   143    11.9   739.4    0.00 
 265    1:30   0.00   52.1    79    5.9   137     9.6   739.4    0.00 
 265    1:40   0.00   52.1    79    7.3   142    11.3   739.3    0.00 
 265    1:50   0.00   52.0    80    8.6   131    14.9   739.2    0.00 
 265    2:00   0.00   52.0    80    5.5   146     9.6   739.3    0.00 
 265    2:10   0.00   51.9    81    7.2   150    13.1   739.3    0.00 
 265    2:20   0.00   51.7    81    5.5   139    11.9   739.3    0.00 
 265    2:30   0.00   51.8    80    3.8   121     7.2   739.2    0.00 
 265    2:40   0.00   51.9    79    5.6   140    10.2   739.2    0.00 
 265    2:50   0.00   51.9    78    4.2   113     7.8   739.1    0.00 
 265    3:00   0.00   51.8    78    2.7   143     5.4   739.1    0.00 
 265    3:10   0.00   51.7    80    5.4   144    11.9   739.0    0.00 
 265    3:20   0.00   51.5    81    5.5   147     9.6   739.0    0.00 
 265    3:30   0.00   51.5    81    5.1   138    10.2   738.9    0.00 
 265    3:40   0.00   51.6    82    4.7   137     7.8   738.9    0.00 
 265    3:50   0.00   51.6    83    5.5   145    11.9   738.9    0.00 
 265    4:00   0.00   51.6    83    5.5   141    11.9   738.9    0.00 
 265    4:10   0.00   51.5    83    5.0   149     9.6   738.9    0.00 
 265    4:20   0.00   51.5    84    5.7   147    10.2   738.9    0.00 

Return to Valle Toledo, Valles Caldera graphs page.


Western Regional Climate Center,wrcc@dri.edu